KTCY

Tracy Municipal Airport

Tracy, California, USA
METAR KTCY 151855Z AUTO VRB05G16KT 10SM FEW036 FEW046 SCT060 11/04 A3000 RMK A01
Observed Flight Rules
Feb-15 @ 18:55 UTC (18 minutes ago) Visual Flight Rules
Wind Visibility Clouds
Variable at 5 knots
 Gusting to 16 knots
10 miles
  • Few at 3,600' AGL
  • Few at 4,600' AGL
  • Scattered at 6,000' AGL
Temperatures Readings
Current 11°C / 52°F
Dewpoint 4°C / 39°F
Humidity 62%
Altimeter 30" Hg
Pressure 1015.92 hPa
Elevation 59
METAR KTCY 151855Z AUTO VRB05G16KT 10SM FEW036 FEW046 SCT060 11/04 A3000 RMK A01
Observed Flight Rules
Feb-15 @ 18:55 UTC
(18 minutes ago)
VFR
Wind Visibility
Variable at 5 knots
 Gusting to 16 knots
10 miles
Clouds
  • Few at 3,600' AGL
  • Few at 4,600' AGL
  • Scattered at 6,000' AGL
Temperature Dewpoint
11°C / 52°F 4°C / 39°F
Humidity Altimeter Pressure
62% 30" Hg 1015.92 hPa